Time;durP1;ratioP1;P1;durP2;ratioP2;P2;SDS_P1;SDS_P2;PMS_P1;PMS_P2;Temp;Humidity;BMP_temperature;BMP_pressure;BME280_temperature;BME280_humidity;BME280_pressure;Samples;Min_cycle;Max_cycle;Signal;HPM_P1;HPM_P2
2023/10/09 00:01:31;;;;;;;21.25;8.65;;;14.00;99.90;;;;;;5055479;28;20139;-78
2023/10/09 00:04:01;;;;;;;20.05;8.95;;;14.00;99.90;;;;;;5055311;28;20055;-78
2023/10/09 00:06:37;;;;;;;21.08;8.15;;;14.00;99.90;;;;;;5055168;28;20053;-78
2023/10/09 00:11:57;;;;;;;20.98;8.70;;;14.00;99.90;;;;;;5054089;28;20063;-78
2023/10/09 00:14:30;;;;;;;;;;;14.00;99.90;;;;;;5055257;28;20040;-78
2023/10/09 00:17:17;;;;;;;21.55;7.90;;;14.00;99.90;;;;;;5054786;28;19955;-78
2023/10/09 00:19:43;;;;;;;18.38;7.00;;;14.00;99.90;;;;;;5055023;28;20126;-78
2023/10/09 00:22:26;;;;;;;21.13;8.13;;;14.00;99.90;;;;;;5055018;28;20064;-78
2023/10/09 00:25:44;;;;;;;22.42;9.13;;;14.00;99.90;;;;;;5054884;28;20045;-78
2023/10/09 00:27:45;;;;;;;23.10;8.95;;;14.00;99.90;;;;;;5046372;28;20141;-78
2023/10/09 00:30:20;;;;;;;19.88;9.55;;;14.00;99.90;;;;;;5054577;28;20094;-78
2023/10/09 00:38:24;;;;;;;25.48;9.65;;;14.10;99.90;;;;;;4997785;28;20107;-78
2023/10/09 00:41:03;;;;;;;24.95;10.45;;;14.00;99.90;;;;;;4997265;28;20062;-78
2023/10/09 00:43:29;;;;;;;26.55;9.50;;;14.10;99.90;;;;;;5028045;28;20075;-78
2023/10/09 00:46:09;;;;;;;24.73;10.32;;;14.10;99.90;;;;;;5054569;28;20110;-78
2023/10/09 00:48:39;;;;;;;23.55;10.05;;;14.10;99.90;;;;;;5054244;28;20098;-78
2023/10/09 00:51:15;;;;;;;24.75;10.30;;;14.10;99.90;;;;;;5055613;28;20045;-78
2023/10/09 00:53:44;;;;;;;27.90;11.18;;;14.10;99.90;;;;;;5054050;28;20060;-78
2023/10/09 00:56:28;;;;;;;22.15;9.50;;;14.20;99.90;;;;;;5053993;28;20051;-78
2023/10/09 00:59:00;;;;;;;30.42;11.35;;;14.10;99.90;;;;;;5054318;28;20092;-78
2023/10/09 01:01:34;;;;;;;28.95;11.07;;;14.20;99.90;;;;;;5054343;28;20080;-78
2023/10/09 01:04:14;;;;;;;30.35;11.75;;;14.20;99.90;;;;;;5055337;28;20037;-78
2023/10/09 01:06:44;;;;;;;31.00;12.27;;;14.20;99.90;;;;;;5053927;28;20388;-78
2023/10/09 01:09:20;;;;;;;34.83;13.02;;;14.20;99.90;;;;;;5053752;28;20049;-78
2023/10/09 01:11:49;;;;;;;38.75;13.45;;;14.20;99.90;;;;;;5053799;28;20132;-78
2023/10/09 01:14:16;;;;;;;39.65;13.07;;;14.20;99.90;;;;;;5053959;28;20040;-78
2023/10/09 01:16:42;;;;;;;34.20;13.93;;;14.20;99.90;;;;;;5053778;28;20136;-78
2023/10/09 01:19:23;;;;;;;46.33;15.35;;;14.30;99.90;;;;;;5053699;28;20084;-78
2023/10/09 01:21:50;;;;;;;42.50;14.52;;;14.30;99.90;;;;;;5053502;28;20048;-78
2023/10/09 01:24:16;;;;;;;39.65;15.13;;;14.30;99.90;;;;;;5053821;28;20041;-77
2023/10/09 01:26:54;;;;;;;43.65;15.90;;;14.30;99.90;;;;;;5054808;28;20033;-78
2023/10/09 01:29:21;;;;;;;44.50;13.98;;;14.30;99.90;;;;;;5053808;28;20128;-78
2023/10/09 01:31:56;;;;;;;42.35;15.65;;;14.30;99.90;;;;;;5053451;28;20040;-78
2023/10/09 01:34:42;;;;;;;46.65;16.90;;;14.30;99.90;;;;;;5053281;28;20076;-78
2023/10/09 01:37:22;;;;;;;46.08;17.65;;;14.30;99.90;;;;;;5053350;28;20077;-78
2023/10/09 01:39:50;;;;;;;46.28;17.38;;;14.30;99.90;;;;;;5053232;28;20063;-78
2023/10/09 01:42:34;;;;;;;46.03;18.83;;;14.30;99.90;;;;;;5053027;28;20124;-78
2023/10/09 01:45:26;;;;;;;47.50;18.27;;;14.30;99.90;;;;;;5053128;28;20041;-78
2023/10/09 01:47:54;;;;;;;44.58;17.85;;;14.30;99.90;;;;;;5053521;28;20041;-78
2023/10/09 01:50:35;;;;;;;53.80;19.63;;;14.30;99.90;;;;;;5052824;28;20131;-78
2023/10/09 01:53:02;;;;;;;48.22;17.92;;;14.30;99.90;;;;;;5052981;28;20388;-78
2023/10/09 01:55:35;;;;;;;49.28;19.02;;;14.30;99.90;;;;;;5052843;28;20056;-78
2023/10/09 02:00:49;;;;;;;46.13;18.50;;;14.30;99.90;;;;;;5052930;28;19921;-78
2023/10/09 02:03:15;;;;;;;43.25;17.98;;;14.30;99.90;;;;;;5052998;28;20060;-78
2023/10/09 02:05:47;;;;;;;49.83;21.30;;;14.30;99.90;;;;;;5052558;28;20056;-78
2023/10/09 02:08:13;;;;;;;52.08;20.20;;;14.30;99.90;;;;;;5053019;28;20056;-78
2023/10/09 02:10:39;;;;;;;45.97;20.92;;;14.30;99.90;;;;;;5052943;28;20045;-78
2023/10/09 02:13:06;;;;;;;46.00;20.08;;;14.30;99.90;;;;;;5052670;28;20409;-78
2023/10/09 02:18:25;;;;;;;52.83;21.23;;;14.30;99.90;;;;;;5054148;28;20076;-78
2023/10/09 02:26:06;;;;;;;49.55;22.08;;;14.30;99.90;;;;;;5052339;28;20098;-78
2023/10/09 02:28:35;;;;;;;51.67;21.60;;;14.40;99.90;;;;;;5052404;28;20083;-78
2023/10/09 02:31:09;;;;;;;51.92;20.67;;;14.40;99.90;;;;;;5052607;28;20492;-78
2023/10/09 02:33:36;;;;;;;61.50;24.08;;;14.30;99.90;;;;;;5052238;28;20072;-78
2023/10/09 02:36:05;;;;;;;56.13;22.73;;;14.40;99.90;;;;;;5052356;28;20124;-78
2023/10/09 02:38:42;;;;;;;52.15;23.20;;;14.40;99.90;;;;;;5052299;28;20119;-78
2023/10/09 02:43:47;;;;;;;55.85;24.33;;;14.40;99.90;;;;;;5052480;28;20051;-78
2023/10/09 02:46:21;;;;;;;48.40;22.80;;;14.40;99.90;;;;;;5052374;28;20064;-77
2023/10/09 02:48:53;;;;;;;55.15;22.73;;;14.40;99.90;;;;;;5052359;28;20052;-78
2023/10/09 02:54:07;;;;;;;53.58;23.30;;;14.40;99.90;;;;;;5053510;28;20083;-78
2023/10/09 02:57:21;;;;;;;59.47;24.70;;;14.40;99.90;;;;;;5052182;28;20053;-79
2023/10/09 02:59:23;;;;;;;58.47;25.33;;;14.50;99.90;;;;;;5041236;28;20059;-78
2023/10/09 03:01:52;;;;;;;66.60;26.83;;;14.50;99.90;;;;;;5051894;28;20045;-78
2023/10/09 03:04:19;;;;;;;56.80;26.98;;;14.50;99.90;;;;;;5052203;28;20064;-78
2023/10/09 03:06:51;;;;;;;67.50;28.30;;;14.70;99.90;;;;;;5051994;28;20049;-78
2023/10/09 03:09:18;;;;;;;62.78;27.38;;;14.60;99.90;;;;;;5052133;28;20045;-78
2023/10/09 03:11:53;;;;;;;60.72;27.10;;;14.70;99.90;;;;;;5051974;28;20495;-78
2023/10/09 03:14:20;;;;;;;62.28;28.23;;;14.70;99.90;;;;;;5051810;28;20484;-78
2023/10/09 03:16:48;;;;;;;66.20;28.05;;;14.80;99.90;;;;;;5051815;28;20041;-78
2023/10/09 03:19:14;;;;;;;65.40;28.15;;;14.80;99.90;;;;;;5052131;28;20036;-77
2023/10/09 03:21:40;;;;;;;60.20;27.17;;;14.80;99.90;;;;;;5051919;28;20546;-78
2023/10/09 03:24:08;;;;;;;58.00;26.23;;;14.80;99.90;;;;;;5052105;28;20129;-78
2023/10/09 03:26:34;;;;;;;57.03;27.83;;;14.90;99.90;;;;;;5051765;28;20052;-78
2023/10/09 03:29:06;;;;;;;61.35;26.30;;;15.00;99.90;;;;;;5049929;28;20045;-77
2023/10/09 03:31:33;;;;;;;55.65;25.15;;;15.00;99.90;;;;;;5032103;28;20339;-78
2023/10/09 03:33:59;;;;;;;54.78;26.40;;;15.00;99.90;;;;;;5031847;28;20129;-78
2023/10/09 03:36:30;;;;;;;52.67;25.08;;;15.10;99.90;;;;;;5031779;28;20045;-79
2023/10/09 03:38:59;;;;;;;48.40;23.48;;;15.10;99.90;;;;;;5031722;28;20049;-79
2023/10/09 03:41:29;;;;;;;53.92;25.15;;;15.10;99.90;;;;;;5031773;28;20064;-78
2023/10/09 03:43:55;;;;;;;50.30;23.40;;;15.20;99.90;;;;;;5031958;28;20046;-78
2023/10/09 03:46:22;;;;;;;49.35;24.30;;;15.20;99.90;;;;;;5033485;28;20041;-78
2023/10/09 03:48:52;;;;;;;45.08;23.05;;;15.20;99.90;;;;;;5035497;28;20556;-78
2023/10/09 03:51:21;;;;;;;46.85;20.60;;;15.20;99.90;;;;;;5035747;28;20098;-78
2023/10/09 03:53:52;;;;;;;37.97;19.60;;;15.30;99.90;;;;;;5035311;28;20085;-78
2023/10/09 03:56:20;;;;;;;38.10;18.45;;;15.30;99.90;;;;;;5035306;28;20126;-79
2023/10/09 03:58:49;;;;;;;33.58;16.13;;;15.30;99.90;;;;;;5035605;28;20072;-79
2023/10/09 04:01:27;;;;;;;32.20;13.63;;;15.30;99.90;;;;;;5035641;28;20041;-79
2023/10/09 04:03:55;;;;;;;30.55;12.15;;;15.40;99.90;;;;;;5035638;28;20045;-78
2023/10/09 04:06:22;;;;;;;33.80;12.82;;;15.40;99.90;;;;;;5035442;28;20049;-78
2023/10/09 04:08:49;;;;;;;31.67;12.77;;;15.50;99.90;;;;;;5035144;28;20501;-79
2023/10/09 04:11:16;;;;;;;32.28;12.55;;;15.50;99.90;;;;;;5035209;28;20073;-78
2023/10/09 04:13:49;;;;;;;28.73;11.98;;;15.70;99.90;;;;;;5035193;28;20081;-79
2023/10/09 04:19:11;;;;;;;23.73;11.40;;;15.60;99.90;;;;;;5035030;28;20088;-79
2023/10/09 04:21:37;;;;;;;31.38;11.13;;;15.70;99.90;;;;;;5036263;28;20422;-79
2023/10/09 04:24:25;;;;;;;33.40;11.52;;;15.60;99.90;;;;;;5034923;28;20504;-79
2023/10/09 04:26:56;;;;;;;27.42;12.48;;;15.70;99.90;;;;;;5035459;28;20041;-79
2023/10/09 04:29:38;;;;;;;30.02;11.82;;;15.60;99.90;;;;;;5034814;28;20053;-79
2023/10/09 04:32:07;;;;;;;24.25;11.02;;;15.60;99.90;;;;;;5035110;28;20483;-79
2023/10/09 04:34:37;;;;;;;35.55;12.05;;;15.60;99.90;;;;;;5034715;28;20081;-79
2023/10/09 04:40:59;;;;;;;23.52;10.73;;;15.60;99.90;;;;;;5034470;28;20057;-79
2023/10/09 04:42:58;;;;;;;28.23;11.15;;;15.60;99.90;;;;;;5021481;28;20456;-79
2023/10/09 04:48:09;;;;;;;27.85;11.45;;;15.60;99.90;;;;;;5034622;28;20060;-79
2023/10/09 04:53:22;;;;;;;25.77;10.82;;;15.50;99.90;;;;;;5035691;28;20042;-79
2023/10/09 04:55:57;;;;;;;23.45;11.32;;;15.60;99.90;;;;;;5034181;28;20497;-79
2023/10/09 04:58:25;;;;;;;27.63;11.30;;;15.50;99.90;;;;;;5033864;28;20084;-79
2023/10/09 05:03:42;;;;;;;26.50;11.02;;;15.50;99.90;;;;;;5034531;28;20067;-79
2023/10/09 05:06:21;;;;;;;32.10;11.13;;;15.50;99.90;;;;;;5034406;28;20049;-79
2023/10/09 05:08:54;;;;;;;25.15;10.55;;;15.50;99.90;;;;;;5034296;28;20103;-79
2023/10/09 05:11:46;;;;;;;25.25;9.75;;;15.50;99.90;;;;;;5034113;28;20050;-79
2023/10/09 05:14:11;;;;;;;25.48;10.40;;;15.50;99.90;;;;;;5034072;28;20578;-79
2023/10/09 05:16:53;;;;;;;32.90;11.18;;;15.50;99.90;;;;;;5034137;28;20061;-79
2023/10/09 05:22:36;;;;;;;28.60;12.02;;;15.50;99.90;;;;;;5035262;28;20053;-79
2023/10/09 05:25:00;;;;;;;25.10;10.95;;;15.50;99.90;;;;;;5033078;28;20057;-79
2023/10/09 05:27:50;;;;;;;29.08;11.07;;;15.50;99.90;;;;;;5033876;28;20045;-79
2023/10/09 05:30:27;;;;;;;29.67;11.48;;;15.50;99.90;;;;;;5033346;28;20041;-79
2023/10/09 05:33:04;;;;;;;24.40;10.75;;;15.50;99.90;;;;;;5034920;28;20049;-79
2023/10/09 05:35:39;;;;;;;27.92;10.15;;;15.50;99.90;;;;;;5033736;28;20053;-79
2023/10/09 05:38:23;;;;;;;33.10;11.63;;;15.50;99.90;;;;;;5033353;28;20148;-79
2023/10/09 05:40:53;;;;;;;36.60;10.93;;;15.60;99.90;;;;;;5034657;28;20053;-80
2023/10/09 05:46:08;;;;;;;24.33;11.68;;;15.50;99.90;;;;;;5033455;28;20061;-79
2023/10/09 05:48:54;;;;;;;24.15;11.05;;;15.50;99.90;;;;;;5033117;28;20049;-79
2023/10/09 05:51:41;;;;;;;29.65;10.70;;;15.50;99.90;;;;;;5033477;28;20053;-79
2023/10/09 05:54:12;;;;;;;28.17;10.15;;;15.50;99.90;;;;;;5034408;28;20374;-79
2023/10/09 06:04:54;;;;;;;25.38;9.60;;;15.50;99.90;;;;;;5032772;28;20073;-80
2023/10/09 06:07:24;;;;;;;23.45;9.98;;;15.40;99.90;;;;;;5032141;28;20073;-79
2023/10/09 06:09:52;;;;;;;24.50;9.98;;;15.60;99.90;;;;;;5031306;28;20049;-79
2023/10/09 06:12:49;;;;;;;34.03;10.73;;;15.60;99.90;;;;;;5032722;28;20068;-79
2023/10/09 06:15:19;;;;;;;27.55;9.82;;;15.50;99.90;;;;;;5032750;28;20053;-79
2023/10/09 06:17:50;;;;;;;31.48;10.10;;;15.50;99.90;;;;;;5032904;28;20049;-79
2023/10/09 06:23:15;;;;;;;27.67;9.57;;;15.60;99.90;;;;;;5032781;28;20057;-79
2023/10/09 06:26:02;;;;;;;27.67;10.52;;;15.60;99.90;;;;;;5032644;28;20049;-79
2023/10/09 06:28:34;;;;;;;23.35;9.70;;;15.50;99.90;;;;;;5032852;28;20053;-79
2023/10/09 06:31:27;;;;;;;27.67;10.27;;;15.60;99.90;;;;;;5033676;28;20444;-79
2023/10/09 06:34:07;;;;;;;25.90;10.10;;;15.60;99.90;;;;;;5032225;28;20059;-79
2023/10/09 06:36:31;;;;;;;23.92;9.63;;;15.60;99.90;;;;;;5032505;28;20128;-79
2023/10/09 06:41:45;;;;;;;26.63;10.35;;;15.60;99.90;;;;;;5032415;28;20077;-80
2023/10/09 06:44:51;;;;;;;30.50;10.25;;;15.60;99.90;;;;;;5033663;28;20072;-80
2023/10/09 06:46:59;;;;;;;26.75;9.52;;;15.50;99.90;;;;;;5034263;28;20099;-79
2023/10/09 06:49:28;;;;;;;24.75;10.05;;;15.60;99.90;;;;;;5032022;28;20049;-80
2023/10/09 06:52:08;;;;;;;30.38;9.70;;;15.50;99.90;;;;;;5033306;28;20060;-80
2023/10/09 06:54:37;;;;;;;27.52;10.32;;;15.60;99.90;;;;;;5032942;28;20477;-79
2023/10/09 06:57:18;;;;;;;29.40;10.90;;;15.60;99.90;;;;;;5032194;28;20059;-80
2023/10/09 07:00:51;;;;;;;30.75;10.10;;;15.70;99.90;;;;;;5031892;28;20091;-80
2023/10/09 07:02:31;;;;;;;27.95;9.63;;;15.60;99.90;;;;;;5032901;28;20046;-79
2023/10/09 07:05:10;;;;;;;24.02;9.55;;;15.70;99.90;;;;;;5031735;28;20052;-80
2023/10/09 07:07:41;;;;;;;34.58;10.75;;;15.70;99.90;;;;;;5032084;28;20049;-80
2023/10/09 07:12:54;;;;;;;22.85;9.07;;;15.60;99.90;;;;;;5048621;28;20128;-79
2023/10/09 07:18:18;;;;;;;34.13;9.60;;;15.70;99.90;;;;;;5048390;28;20092;-79
2023/10/09 07:20:58;;;;;;;28.90;9.40;;;15.60;99.90;;;;;;5034097;28;20134;-79
2023/10/09 07:23:28;;;;;;;30.00;9.95;;;15.70;99.90;;;;;;5035697;28;20156;-78
2023/10/09 07:26:37;;;;;;;30.75;10.45;;;15.70;99.90;;;;;;5035368;28;20088;-79
2023/10/09 07:29:02;;;;;;;25.63;9.65;;;15.70;99.90;;;;;;5033960;28;20056;-77
2023/10/09 07:31:45;;;;;;;27.67;9.70;;;15.60;99.90;;;;;;5035715;28;20623;-78
2023/10/09 07:37:03;;;;;;;31.30;10.38;;;15.70;99.90;;;;;;5013021;28;20143;-79
2023/10/09 07:39:34;;;;;;;33.00;10.52;;;15.70;99.90;;;;;;5035318;28;20081;-78
2023/10/09 07:42:26;;;;;;;27.60;9.75;;;15.70;99.90;;;;;;5035533;28;20489;-77
2023/10/09 07:44:56;;;;;;;33.20;10.95;;;15.60;99.90;;;;;;5035326;28;20366;-78
2023/10/09 07:47:45;;;;;;;33.20;10.68;;;15.70;99.90;;;;;;5035324;28;20049;-78
2023/10/09 07:50:11;;;;;;;33.88;10.10;;;15.60;99.90;;;;;;5035220;28;20056;-78
2023/10/09 07:52:43;;;;;;;37.38;10.07;;;15.70;99.90;;;;;;5035216;28;20075;-78
2023/10/09 07:55:25;;;;;;;29.33;10.68;;;15.70;99.90;;;;;;5035017;28;20450;-78
2023/10/09 07:57:54;;;;;;;31.25;9.93;;;15.80;99.90;;;;;;5036624;28;20042;-78
2023/10/09 08:03:09;;;;;;;37.72;10.55;;;15.80;99.90;;;;;;5036436;28;20145;-78
2023/10/09 08:05:44;;;;;;;28.70;9.57;;;15.70;99.90;;;;;;5035008;28;20045;-78
2023/10/09 08:13:56;;;;;;;33.47;10.27;;;15.80;99.90;;;;;;5036022;28;20106;-79
2023/10/09 08:16:24;;;;;;;36.80;9.98;;;15.90;99.90;;;;;;5034686;28;20099;-79
2023/10/09 08:18:53;;;;;;;28.02;10.05;;;15.80;99.90;;;;;;5034693;28;20507;-79
2023/10/09 08:21:41;;;;;;;32.22;10.55;;;15.80;99.90;;;;;;5034662;28;20049;-79
2023/10/09 08:24:35;;;;;;;22.70;8.95;;;15.90;99.90;;;;;;5034829;28;20044;-80
2023/10/09 08:27:28;;;;;;;38.65;10.55;;;15.80;99.90;;;;;;5034351;28;20049;-80
2023/10/09 08:29:46;;;;;;;29.50;9.95;;;15.80;99.90;;;;;;5034660;28;20053;-79
2023/10/09 08:32:38;;;;;;;31.50;10.15;;;15.80;99.90;;;;;;5035001;28;20042;-79
2023/10/09 08:35:18;;;;;;;34.75;9.52;;;16.00;99.90;;;;;;5035726;28;20164;-79
2023/10/09 08:37:48;;;;;;;32.65;10.43;;;16.00;99.90;;;;;;5034629;28;20037;-79
2023/10/09 08:40:20;;;;;;;26.23;9.35;;;16.00;99.90;;;;;;5035463;28;20063;-79
2023/10/09 08:42:54;;;;;;;30.23;9.50;;;15.90;99.90;;;;;;5035317;28;20045;-79
2023/10/09 08:45:24;;;;;;;28.77;9.18;;;15.90;99.90;;;;;;5034466;28;20056;-78
2023/10/09 08:47:54;;;;;;;33.42;10.43;;;16.00;99.90;;;;;;5034351;28;20045;-79
2023/10/09 08:50:20;;;;;;;33.42;10.23;;;16.10;99.90;;;;;;5034377;28;20449;-78
2023/10/09 08:52:48;;;;;;;30.95;10.07;;;15.90;99.90;;;;;;5035364;28;20108;-79
2023/10/09 08:55:16;;;;;;;28.08;10.00;;;16.00;99.90;;;;;;5050409;28;20049;-78
2023/10/09 08:57:46;;;;;;;29.88;9.38;;;16.00;99.90;;;;;;5033965;28;20129;-79
2023/10/09 09:00:33;;;;;;;24.70;10.10;;;16.00;99.90;;;;;;5033914;28;20042;-79
2023/10/09 09:03:02;;;;;;;30.05;10.32;;;16.00;99.90;;;;;;5034092;28;20504;-79
2023/10/09 09:05:28;;;;;;;35.45;9.85;;;16.00;99.90;;;;;;5033892;28;20060;-79
2023/10/09 09:07:59;;;;;;;28.17;9.18;;;16.00;99.90;;;;;;5033637;28;20049;-80
2023/10/09 09:10:39;;;;;;;38.35;9.82;;;16.10;99.90;;;;;;5034035;28;20046;-79
2023/10/09 09:13:06;;;;;;;30.08;9.50;;;16.00;99.90;;;;;;5033595;28;20045;-80
2023/10/09 09:15:32;;;;;;;31.50;9.68;;;16.00;99.90;;;;;;5033677;28;20081;-80
2023/10/09 09:18:11;;;;;;;34.40;9.85;;;16.20;99.90;;;;;;5033828;28;20073;-79
2023/10/09 09:20:40;;;;;;;26.20;9.60;;;16.10;99.90;;;;;;5034231;28;20075;-79
2023/10/09 09:23:12;;;;;;;29.25;9.50;;;16.10;99.90;;;;;;5033532;28;20075;-79
2023/10/09 09:25:44;;;;;;;33.13;9.65;;;16.20;99.90;;;;;;5056386;28;20112;-78
2023/10/09 09:28:19;;;;;;;33.70;9.57;;;16.20;99.90;;;;;;5061153;28;20048;-79
2023/10/09 09:30:50;;;;;;;25.08;9.20;;;16.10;99.90;;;;;;5073498;28;20048;-79
2023/10/09 09:33:30;;;;;;;28.00;9.63;;;16.40;99.90;;;;;;5072512;28;20040;-79
2023/10/09 09:35:57;;;;;;;30.25;9.50;;;16.40;99.90;;;;;;5037067;28;20052;-78
2023/10/09 09:38:28;;;;;;;37.20;9.68;;;16.30;99.90;;;;;;4997719;28;20056;-77
2023/10/09 09:41:02;;;;;;;24.75;9.07;;;16.40;99.90;;;;;;5018684;28;20063;-77
2023/10/09 09:43:31;;;;;;;31.02;9.13;;;16.30;99.90;;;;;;5060256;28;20163;-78
2023/10/09 09:45:57;;;;;;;29.90;9.88;;;16.40;99.90;;;;;;5072147;28;20059;-78
2023/10/09 09:48:24;;;;;;;29.23;9.55;;;16.40;99.90;;;;;;5074091;28;20063;-77
2023/10/09 09:50:54;;;;;;;36.25;9.93;;;16.40;99.90;;;;;;5070747;28;20049;-77
2023/10/09 09:53:23;;;;;;;26.73;9.02;;;16.50;99.90;;;;;;5072523;28;20052;-78
2023/10/09 09:55:59;;;;;;;27.38;8.93;;;16.50;99.90;;;;;;5072048;28;20123;-80
2023/10/09 09:58:41;;;;;;;22.98;7.75;;;16.30;99.90;;;;;;5071516;28;20468;-78
2023/10/09 10:01:16;;;;;;;24.15;7.50;;;16.30;99.90;;;;;;5072665;28;20040;-78
2023/10/09 10:03:57;;;;;;;22.25;7.82;;;16.50;99.90;;;;;;5072888;28;20518;-78
2023/10/09 10:06:26;;;;;;;22.65;7.78;;;16.40;99.90;;;;;;5071590;28;20051;-77
2023/10/09 10:08:52;;;;;;;23.05;8.68;;;16.30;99.90;;;;;;5072443;28;20131;-77
2023/10/09 10:11:52;;;;;;;26.52;8.15;;;16.30;99.90;;;;;;5072752;28;20128;-78
2023/10/09 10:14:31;;;;;;;32.70;8.73;;;16.40;99.90;;;;;;5072682;28;20049;-77
2023/10/09 10:17:17;;;;;;;28.85;9.43;;;16.30;99.90;;;;;;5071627;28;20488;-78
2023/10/09 10:22:47;;;;;;;28.60;7.75;;;16.40;99.90;;;;;;5073805;28;20110;-77
2023/10/09 10:25:41;;;;;;;20.35;7.32;;;16.30;99.90;;;;;;5072193;28;20047;-77
2023/10/09 10:28:45;;;;;;;21.75;7.00;;;16.30;99.90;;;;;;5072520;28;20048;-78
2023/10/09 10:31:13;;;;;;;;;;;16.30;99.90;;;;;;5071954;28;20052;-78
2023/10/09 10:33:58;;;;;;;19.65;6.38;;;16.50;99.90;;;;;;5072431;28;19924;-79
2023/10/09 10:36:28;;;;;;;19.88;6.10;;;16.50;99.90;;;;;;5071976;28;20053;-79
2023/10/09 10:39:11;;;;;;;15.82;5.40;;;16.40;99.90;;;;;;5071842;28;20045;-79
2023/10/09 10:41:50;;;;;;;23.92;6.38;;;16.40;99.90;;;;;;5073246;28;20052;-78
2023/10/09 10:44:38;;;;;;;21.73;6.28;;;16.50;99.90;;;;;;5072188;28;20040;-78
2023/10/09 10:47:24;;;;;;;16.90;5.70;;;16.40;99.90;;;;;;5072390;28;20084;-78
2023/10/09 10:49:52;;;;;;;18.38;5.53;;;16.30;99.90;;;;;;5071473;28;20098;-77
2023/10/09 10:52:35;;;;;;;19.25;5.38;;;16.40;99.90;;;;;;5071899;28;20437;-77
2023/10/09 10:55:30;;;;;;;15.10;5.40;;;16.40;99.90;;;;;;5071801;28;20048;-78
2023/10/09 10:58:13;;;;;;;16.65;4.95;;;16.30;99.90;;;;;;5071991;28;20066;-78
2023/10/09 11:03:29;;;;;;;20.17;6.43;;;16.40;99.90;;;;;;5071878;28;20507;-78
2023/10/09 11:05:55;;;;;;;17.55;5.00;;;16.40;99.90;;;;;;5071896;28;20057;-79
2023/10/09 11:08:34;;;;;;;14.52;5.25;;;16.40;99.90;;;;;;5072073;28;20135;-78
2023/10/09 11:11:19;;;;;;;22.77;6.90;;;16.30;99.90;;;;;;5073214;28;20055;-78
2023/10/09 11:13:54;;;;;;;22.45;6.70;;;16.30;99.90;;;;;;5071748;28;20049;-78
2023/10/09 11:16:41;;;;;;;19.45;6.03;;;16.30;99.90;;;;;;5071608;28;20063;-78
2023/10/09 11:19:22;;;;;;;21.52;6.35;;;16.30;99.90;;;;;;5072452;28;20090;-76
2023/10/09 11:21:58;;;;;;;24.08;6.72;;;16.50;99.90;;;;;;5071996;28;20117;-77
2023/10/09 11:24:33;;;;;;;17.15;6.60;;;16.50;99.90;;;;;;5071640;28;20070;-77
2023/10/09 11:27:05;;;;;;;17.23;6.05;;;16.60;99.90;;;;;;5072973;28;20045;-77
2023/10/09 11:32:18;;;;;;;18.17;4.95;;;16.80;99.90;;;;;;5071789;28;20063;-78
2023/10/09 11:34:54;;;;;;;17.95;4.82;;;16.70;99.90;;;;;;5073072;28;20087;-76
2023/10/09 11:40:00;;;;;;;21.00;6.35;;;16.70;99.90;;;;;;5071259;28;20063;-76
2023/10/09 11:42:49;;;;;;;23.98;6.13;;;16.70;99.90;;;;;;5071683;28;20048;-77
2023/10/09 11:45:28;;;;;;;20.42;5.75;;;16.60;99.90;;;;;;5071472;28;20090;-77
2023/10/09 11:48:03;;;;;;;22.38;6.25;;;16.60;99.90;;;;;;5072660;28;20044;-76
2023/10/09 11:50:53;;;;;;;16.70;5.20;;;16.70;99.90;;;;;;5071394;28;20135;-77
2023/10/09 11:53:33;;;;;;;19.10;5.80;;;16.70;99.90;;;;;;5071567;28;20067;-76
2023/10/09 11:55:59;;;;;;;19.20;5.50;;;16.60;99.90;;;;;;5072758;28;20051;-77
2023/10/09 11:58:25;;;;;;;18.45;6.20;;;16.70;99.90;;;;;;5070826;28;20495;-78
2023/10/09 12:01:04;;;;;;;24.38;5.38;;;16.60;99.90;;;;;;5071103;28;20051;-77
2023/10/09 12:03:31;;;;;;;17.15;6.05;;;16.70;99.90;;;;;;5071246;28;20044;-78
2023/10/09 12:06:14;;;;;;;18.17;5.63;;;16.80;99.90;;;;;;5071245;28;20501;-78
2023/10/09 12:08:40;;;;;;;16.65;5.78;;;16.80;99.90;;;;;;5074528;28;20055;-78
2023/10/09 12:11:10;;;;;;;17.73;5.68;;;16.80;99.90;;;;;;5074920;28;20048;-77
2023/10/09 12:13:42;;;;;;;15.00;4.95;;;16.80;99.90;;;;;;5076073;28;20127;-78
2023/10/09 12:16:10;;;;;;;18.77;5.00;;;16.80;99.90;;;;;;5076237;28;20059;-78
2023/10/09 12:18:39;;;;;;;13.00;5.05;;;16.80;99.90;;;;;;5074681;28;20041;-77
2023/10/09 12:21:06;;;;;;;18.77;5.60;;;16.70;99.90;;;;;;5074604;28;20044;-78
2023/10/09 12:23:35;;;;;;;17.85;5.28;;;16.70;99.90;;;;;;5074647;28;20049;-78
2023/10/09 12:26:04;;;;;;;16.98;4.97;;;16.70;99.90;;;;;;5075871;28;20411;-79
2023/10/09 12:28:32;;;;;;;16.33;5.25;;;16.80;99.90;;;;;;5074378;28;20097;-78
2023/10/09 12:31:01;;;;;;;15.38;5.38;;;16.80;99.90;;;;;;5074617;28;20051;-79
2023/10/09 12:33:28;;;;;;;19.63;4.97;;;16.80;99.90;;;;;;5074492;28;20419;-78
2023/10/09 12:36:00;;;;;;;21.52;4.95;;;16.80;99.90;;;;;;5074334;28;20045;-78
2023/10/09 12:38:31;;;;;;;17.23;4.55;;;16.90;99.90;;;;;;5075759;28;20041;-78
2023/10/09 12:41:20;;;;;;;12.50;4.40;;;16.90;99.90;;;;;;5074243;28;20056;-78
2023/10/09 12:43:49;;;;;;;13.60;4.35;;;16.90;99.90;;;;;;5074516;28;20063;-78
2023/10/09 12:46:17;;;;;;;15.52;4.20;;;17.00;99.90;;;;;;5074292;28;20500;-78
2023/10/09 12:48:46;;;;;;;13.98;4.25;;;17.00;99.90;;;;;;5071053;28;20142;-78
2023/10/09 12:51:16;;;;;;;18.58;4.63;;;17.10;99.90;;;;;;5054413;28;20060;-78
2023/10/09 12:53:42;;;;;;;14.88;4.55;;;17.10;99.90;;;;;;5054225;28;20060;-78
2023/10/09 12:56:09;;;;;;;14.32;4.25;;;17.00;99.90;;;;;;5055612;28;20048;-78
2023/10/09 12:58:37;;;;;;;18.23;4.28;;;17.10;99.90;;;;;;5054300;28;20124;-78
2023/10/09 13:01:09;;;;;;;17.55;4.72;;;17.10;99.90;;;;;;5055262;28;20037;-78
2023/10/09 13:03:38;;;;;;;13.85;4.40;;;17.10;99.90;;;;;;5054528;28;20119;-78
2023/10/09 13:06:07;;;;;;;17.23;4.68;;;17.00;99.90;;;;;;5053938;28;20052;-78
2023/10/09 13:08:36;;;;;;;13.52;3.67;;;16.90;99.90;;;;;;5054025;28;20493;-78
2023/10/09 13:11:16;;;;;;;11.32;4.03;;;17.00;99.90;;;;;;5053860;28;20056;-78
2023/10/09 13:13:43;;;;;;;14.23;3.40;;;16.90;99.90;;;;;;5054946;28;20068;-78
2023/10/09 13:16:25;;;;;;;14.93;3.78;;;16.90;99.90;;;;;;5053630;28;20515;-78
2023/10/09 13:18:56;;;;;;;16.17;4.00;;;16.80;99.90;;;;;;5053918;28;20049;-77
2023/10/09 13:21:23;;;;;;;11.70;3.17;;;16.80;99.90;;;;;;5053784;28;20061;-78
2023/10/09 13:23:50;;;;;;;10.88;2.80;;;16.80;99.90;;;;;;5053740;28;20120;-78
2023/10/09 13:26:34;;;;;;;13.65;3.50;;;16.80;99.90;;;;;;5053449;28;20041;-78
2023/10/09 13:29:02;;;;;;;9.75;3.75;;;16.80;99.90;;;;;;5053632;28;20087;-78
2023/10/09 13:31:31;;;;;;;10.90;2.92;;;16.80;99.90;;;;;;5053334;28;20053;-77
2023/10/09 13:33:58;;;;;;;10.07;3.35;;;16.80;99.90;;;;;;5053507;28;20045;-78
2023/10/09 13:36:31;;;;;;;12.70;3.28;;;16.70;99.90;;;;;;5053298;28;20485;-78
2023/10/09 13:39:52;;;;;;;14.75;3.75;;;16.60;99.90;;;;;;5053097;28;20049;-79
2023/10/09 13:41:59;;;;;;;8.65;3.20;;;16.60;99.90;;;;;;5044939;28;20416;-78
2023/10/09 13:44:28;;;;;;;14.85;2.88;;;16.60;99.90;;;;;;5053152;28;20048;-78
2023/10/09 13:47:05;;;;;;;15.90;3.33;;;16.60;99.90;;;;;;5054366;28;20042;-78
2023/10/09 13:49:34;;;;;;;11.00;2.50;;;16.70;99.90;;;;;;5053306;28;20048;-78
2023/10/09 13:52:01;;;;;;;12.82;2.42;;;16.70;99.90;;;;;;5052990;28;20128;-78
2023/10/09 13:57:07;;;;;;;9.23;1.95;;;16.60;99.90;;;;;;5054229;28;20087;-78
2023/10/09 13:59:42;;;;;;;8.20;1.73;;;16.70;99.90;;;;;;5052951;28;20045;-78
2023/10/09 14:02:16;;;;;;;8.32;1.90;;;16.60;99.90;;;;;;5054369;28;20145;-78
2023/10/09 14:04:43;;;;;;;10.32;2.33;;;16.70;99.90;;;;;;5053069;28;20072;-78
2023/10/09 14:07:09;;;;;;;11.52;1.83;;;16.70;99.90;;;;;;5052743;28;20053;-78
2023/10/09 14:09:38;;;;;;;11.60;2.05;;;16.70;99.90;;;;;;5054168;28;20033;-79
2023/10/09 14:12:11;;;;;;;9.52;1.98;;;16.70;99.90;;;;;;5053853;28;20052;-78
2023/10/09 14:14:47;;;;;;;9.57;2.15;;;16.60;99.90;;;;;;5057777;28;20040;-78
2023/10/09 14:17:23;;;;;;;10.52;1.92;;;16.70;99.90;;;;;;5072546;28;20051;-78
2023/10/09 14:19:50;;;;;;;15.43;3.08;;;16.60;99.90;;;;;;5072527;28;20070;-77
2023/10/09 14:22:38;;;;;;;9.68;2.35;;;16.70;99.90;;;;;;5073957;28;20051;-78
2023/10/09 14:25:12;;;;;;;7.75;1.90;;;16.60;99.90;;;;;;5072656;28;20550;-78
2023/10/09 14:27:38;;;;;;;9.50;2.60;;;16.60;99.90;;;;;;5072413;28;20083;-78
2023/10/09 14:30:12;;;;;;;7.68;1.90;;;16.60;99.90;;;;;;5072059;28;20044;-78
2023/10/09 14:32:47;;;;;;;8.90;2.28;;;16.70;99.90;;;;;;5072388;28;20044;-78
2023/10/09 14:35:12;;;;;;;9.65;2.45;;;16.60;99.90;;;;;;5072464;28;20178;-78